Time;durP1;ratioP1;P1;durP2;ratioP2;P2;SDS_P1;SDS_P2;PMS_P1;PMS_P2;Temp;Humidity;BMP_temperature;BMP_pressure;BME280_temperature;BME280_humidity;BME280_pressure;Samples;Min_cycle;Max_cycle;Signal;HPM_P1;HPM_P2
2022/05/11 00:01:09;;;;;;;2.90;2.63;;;17.40;99.90;;;;;;5076098;28;20201;-46
2022/05/11 00:03:38;;;;;;;4.60;2.93;;;17.40;99.90;;;;;;5083683;28;20238;-48
2022/05/11 00:06:05;;;;;;;3.57;3.37;;;17.40;99.90;;;;;;5076304;28;20201;-47
2022/05/11 00:08:32;;;;;;;3.50;3.40;;;17.40;99.90;;;;;;5077327;28;20669;-47
2022/05/11 00:10:59;;;;;;;3.83;3.60;;;17.30;99.90;;;;;;5072588;28;20716;-47
2022/05/11 00:13:28;;;;;;;4.17;3.30;;;17.20;99.90;;;;;;5076522;28;20196;-47
2022/05/11 00:15:55;;;;;;;4.23;3.90;;;17.10;99.90;;;;;;5081968;28;20257;-48
2022/05/11 00:18:22;;;;;;;3.37;3.27;;;17.10;99.90;;;;;;5086577;28;20293;-48
2022/05/11 00:20:50;;;;;;;4.20;3.63;;;17.10;99.90;;;;;;5071479;28;20263;-47
2022/05/11 00:23:18;;;;;;;5.90;4.20;;;17.10;99.90;;;;;;5071689;28;20201;-47
2022/05/11 00:25:45;;;;;;;2.67;2.57;;;17.10;99.90;;;;;;5072495;28;20197;-47
2022/05/11 00:28:12;;;;;;;2.63;2.53;;;17.10;99.90;;;;;;5082783;28;20251;-48
2022/05/11 00:30:40;;;;;;;3.67;3.47;;;17.00;99.90;;;;;;5087846;28;20203;-48
2022/05/11 00:33:07;;;;;;;4.63;4.33;;;16.90;99.90;;;;;;5071252;28;20193;-47
2022/05/11 00:35:35;;;;;;;4.80;4.00;;;16.90;99.90;;;;;;5074482;28;20197;-47
2022/05/11 00:38:05;;;;;;;4.63;4.23;;;16.80;99.90;;;;;;5084249;28;20300;-48
2022/05/11 00:40:33;;;;;;;4.73;4.53;;;16.70;99.90;;;;;;5077807;28;20246;-47
2022/05/11 00:43:00;;;;;;;4.23;4.03;;;16.70;99.90;;;;;;5077114;28;20198;-47
2022/05/11 00:45:27;;;;;;;4.97;4.50;;;16.60;99.90;;;;;;5079727;28;20196;-47
2022/05/11 00:48:00;;;;;;;4.43;4.20;;;16.50;99.90;;;;;;5080556;28;20232;-48
2022/05/11 00:50:30;;;;;;;4.87;4.47;;;16.50;99.90;;;;;;5078122;28;20250;-48
2022/05/11 00:53:00;;;;;;;4.87;4.53;;;16.40;99.90;;;;;;5071902;28;20197;-47
2022/05/11 00:55:35;;;;;;;4.00;3.40;;;16.40;99.90;;;;;;5070922;28;20651;-47
2022/05/11 00:58:05;;;;;;;5.00;3.83;;;16.40;99.90;;;;;;5086942;28;20284;-47
2022/05/11 01:00:32;;;;;;;3.83;3.63;;;16.30;99.90;;;;;;5074633;28;20275;-47
2022/05/11 01:03:03;;;;;;;4.37;4.00;;;16.30;99.90;;;;;;5079240;28;20197;-47
2022/05/11 01:05:30;;;;;;;3.93;3.73;;;16.40;99.90;;;;;;5086459;28;20279;-47
2022/05/11 01:07:59;;;;;;;4.47;4.27;;;16.40;99.90;;;;;;5091945;28;20303;-47
2022/05/11 01:10:29;;;;;;;4.87;4.57;;;16.40;99.90;;;;;;5077629;28;20205;-47
2022/05/11 01:13:00;;;;;;;4.30;4.10;;;16.40;99.90;;;;;;5079008;28;20203;-47
2022/05/11 01:15:30;;;;;;;4.53;4.23;;;16.40;99.90;;;;;;5079241;28;20732;-47
2022/05/11 01:17:58;;;;;;;5.33;4.93;;;16.50;99.90;;;;;;5069919;28;20602;-48
2022/05/11 01:20:28;;;;;;;5.87;5.00;;;16.60;99.90;;;;;;5079641;28;20203;-47
2022/05/11 01:23:05;;;;;;;4.80;4.43;;;16.70;99.90;;;;;;5077118;28;20574;-47
2022/05/11 01:25:33;;;;;;;3.90;3.60;;;16.70;99.90;;;;;;5071777;28;20576;-47
2022/05/11 01:28:08;;;;;;;4.30;4.10;;;16.60;99.90;;;;;;5070920;28;20229;-47
2022/05/11 01:30:35;;;;;;;3.60;3.50;;;16.60;99.90;;;;;;5077331;28;20249;-47
2022/05/11 01:33:02;;;;;;;4.10;3.77;;;16.50;99.90;;;;;;5081761;28;20201;-47
2022/05/11 01:35:45;;;;;;;4.83;4.30;;;16.50;99.90;;;;;;5076407;28;20249;-47
2022/05/11 01:38:39;;;;;;;4.10;3.90;;;16.50;99.90;;;;;;5081655;28;20220;-47
2022/05/11 01:41:08;;;;;;;4.00;3.70;;;16.40;99.90;;;;;;5081175;28;20287;-48
2022/05/11 01:43:39;;;;;;;4.17;3.97;;;16.40;99.90;;;;;;5077193;28;20197;-47
2022/05/11 01:46:07;;;;;;;4.73;4.43;;;16.30;99.90;;;;;;5079675;28;20231;-47
2022/05/11 01:48:34;;;;;;;4.00;3.73;;;16.20;99.90;;;;;;5070229;28;20752;-47
2022/05/11 01:51:01;;;;;;;5.00;4.63;;;16.10;99.90;;;;;;5071446;28;20197;-48
2022/05/11 01:53:29;;;;;;;4.67;4.37;;;16.00;99.90;;;;;;5074773;28;20654;-47
2022/05/11 01:55:56;;;;;;;5.03;4.73;;;15.90;99.90;;;;;;5081356;28;20201;-47
2022/05/11 01:58:26;;;;;;;4.50;4.10;;;15.90;99.90;;;;;;5071277;28;20221;-47
2022/05/11 02:00:53;;;;;;;4.07;3.87;;;15.90;99.90;;;;;;5070510;28;20372;-47
2022/05/11 02:03:20;;;;;;;4.13;3.83;;;15.90;99.90;;;;;;5086057;28;20192;-47
2022/05/11 02:08:32;;;;;;;4.20;3.80;;;15.80;99.90;;;;;;5069385;28;20784;-47
2022/05/11 02:10:59;;;;;;;5.00;4.60;;;15.80;99.90;;;;;;5080058;28;20208;-48
2022/05/11 02:13:29;;;;;;;4.07;3.80;;;15.80;99.90;;;;;;5073793;28;20242;-47
2022/05/11 02:15:56;;;;;;;4.47;4.17;;;15.80;99.90;;;;;;5084424;28;20628;-47
2022/05/11 02:18:23;;;;;;;4.47;4.10;;;15.70;99.90;;;;;;5074843;28;20216;-47
2022/05/11 02:20:51;;;;;;;3.97;3.67;;;15.70;99.90;;;;;;5082392;28;20716;-48
2022/05/11 02:23:20;;;;;;;3.93;3.70;;;15.70;99.90;;;;;;5079040;28;20670;-48
2022/05/11 02:25:49;;;;;;;3.57;3.43;;;15.60;99.90;;;;;;5083354;28;20253;-48
2022/05/11 02:28:18;;;;;;;5.03;4.57;;;15.50;99.90;;;;;;5085857;28;20219;-48
2022/05/11 02:30:47;;;;;;;3.93;3.70;;;15.50;99.90;;;;;;5088670;28;20196;-47
2022/05/11 02:33:14;;;;;;;3.97;3.87;;;15.50;99.90;;;;;;5087018;28;20262;-47
2022/05/11 02:35:43;;;;;;;3.33;3.23;;;15.50;99.90;;;;;;5087540;28;20201;-47
2022/05/11 02:38:14;;;;;;;4.20;3.47;;;15.50;99.90;;;;;;5081400;28;20706;-47
2022/05/11 02:40:42;;;;;;;4.20;3.90;;;15.50;99.90;;;;;;5081170;28;20679;-47
2022/05/11 02:43:11;;;;;;;3.27;3.17;;;15.50;99.90;;;;;;5090896;28;20239;-47
2022/05/11 02:45:40;;;;;;;3.63;3.43;;;15.50;99.90;;;;;;5072662;28;20236;-47
2022/05/11 02:48:10;;;;;;;3.40;3.30;;;15.40;99.90;;;;;;5085667;28;20306;-48
2022/05/11 02:50:40;;;;;;;3.90;3.70;;;15.40;99.90;;;;;;5076950;28;20225;-47
2022/05/11 02:53:09;;;;;;;4.17;3.87;;;15.30;99.90;;;;;;5072632;28;20254;-47
2022/05/11 02:55:37;;;;;;;4.57;4.30;;;15.30;99.90;;;;;;5071222;28;20304;-47
2022/05/11 02:58:05;;;;;;;3.87;3.57;;;15.20;99.90;;;;;;5081639;28;20228;-47
2022/05/11 03:00:33;;;;;;;4.33;4.13;;;15.20;99.90;;;;;;5077501;28;20190;-48
2022/05/11 03:03:03;;;;;;;4.43;4.23;;;15.20;99.90;;;;;;5074522;28;20243;-47
2022/05/11 03:05:31;;;;;;;3.60;3.40;;;15.20;99.90;;;;;;5086072;28;20197;-47
2022/05/11 03:07:58;;;;;;;3.73;3.43;;;15.10;99.90;;;;;;5076345;28;20225;-47
2022/05/11 03:10:26;;;;;;;4.77;4.53;;;15.00;99.90;;;;;;5083118;28;20217;-47
2022/05/11 03:12:54;;;;;;;4.60;4.33;;;15.00;99.90;;;;;;5065892;28;20197;-47
2022/05/11 03:15:22;;;;;;;4.43;4.13;;;14.90;99.90;;;;;;5071238;28;20255;-47
2022/05/11 03:17:49;;;;;;;5.10;4.33;;;14.90;99.90;;;;;;5073756;28;20240;-47
2022/05/11 03:20:18;;;;;;;4.10;3.80;;;14.90;99.90;;;;;;5073860;28;20262;-47
2022/05/11 03:22:46;;;;;;;3.23;2.90;;;14.90;99.90;;;;;;5072566;28;20259;-47
2022/05/11 03:25:13;;;;;;;4.03;3.83;;;14.80;99.90;;;;;;5073776;28;20667;-47
2022/05/11 03:27:40;;;;;;;4.07;3.77;;;14.80;99.90;;;;;;5073190;28;20228;-47
2022/05/11 03:30:09;;;;;;;3.70;3.50;;;14.90;99.90;;;;;;5072815;28;20263;-47
2022/05/11 03:35:32;;;;;;;3.93;3.63;;;15.00;99.90;;;;;;4990720;28;20250;-47
2022/05/11 03:38:00;;;;;;;3.83;3.73;;;15.10;99.90;;;;;;5050566;28;20221;-47
2022/05/11 03:40:27;;;;;;;3.90;3.60;;;15.00;99.90;;;;;;5073241;28;20284;-47
2022/05/11 03:42:54;;;;;;;3.67;3.37;;;15.00;99.90;;;;;;5072042;28;20201;-47
2022/05/11 03:45:24;;;;;;;3.63;2.97;;;15.10;99.90;;;;;;5082484;28;20250;-47
2022/05/11 03:47:52;;;;;;;2.93;2.83;;;15.20;99.90;;;;;;5065214;28;20226;-47
2022/05/11 03:50:22;;;;;;;3.87;3.67;;;15.30;99.90;;;;;;5071515;28;20706;-47
2022/05/11 03:52:49;;;;;;;3.10;3.00;;;15.30;99.90;;;;;;5071996;28;20231;-47
2022/05/11 03:55:18;;;;;;;2.77;2.67;;;15.30;99.90;;;;;;5074328;28;20266;-47
2022/05/11 03:57:45;;;;;;;3.23;2.93;;;15.40;99.90;;;;;;5070883;28;20788;-47
2022/05/11 04:00:17;;;;;;;3.30;3.00;;;15.40;99.90;;;;;;5067557;28;20193;-47
2022/05/11 04:02:44;;;;;;;2.87;2.70;;;15.40;99.90;;;;;;5071770;28;20214;-47
2022/05/11 04:05:13;;;;;;;2.70;2.60;;;15.40;99.90;;;;;;5070803;28;20691;-47
2022/05/11 04:07:40;;;;;;;3.33;3.23;;;15.40;99.90;;;;;;5072563;28;20213;-47
2022/05/11 04:10:09;;;;;;;3.20;2.93;;;15.50;99.90;;;;;;5071570;28;20274;-47
2022/05/11 04:12:37;;;;;;;3.23;2.97;;;15.50;99.90;;;;;;5074447;28;20193;-47
2022/05/11 04:15:06;;;;;;;3.50;3.20;;;15.60;99.90;;;;;;5073229;28;20265;-47
2022/05/11 04:17:34;;;;;;;3.17;2.97;;;15.60;99.90;;;;;;5068855;28;20217;-47
2022/05/11 04:20:01;;;;;;;2.73;2.63;;;15.60;99.90;;;;;;5076981;28;20284;-47
2022/05/11 04:22:29;;;;;;;4.27;3.70;;;15.50;99.90;;;;;;5068625;28;20246;-47
2022/05/11 04:24:56;;;;;;;3.70;3.50;;;15.60;99.90;;;;;;5068861;28;20204;-47
2022/05/11 04:27:24;;;;;;;3.07;2.87;;;15.60;99.90;;;;;;5068445;28;20245;-46
2022/05/11 04:29:52;;;;;;;2.93;2.53;;;15.60;99.90;;;;;;5071407;28;20225;-47
2022/05/11 04:32:19;;;;;;;3.07;2.97;;;15.70;99.90;;;;;;5078297;28;20196;-47
2022/05/11 04:34:47;;;;;;;2.80;2.70;;;15.70;99.90;;;;;;5073826;28;20208;-47
2022/05/11 04:37:14;;;;;;;3.10;2.90;;;15.80;99.90;;;;;;5064335;28;20220;-48
2022/05/11 04:39:41;;;;;;;3.70;2.30;;;15.90;99.90;;;;;;5054571;28;20225;-47
2022/05/11 04:42:09;;;;;;;4.10;2.70;;;16.00;99.90;;;;;;5065186;28;20203;-47
2022/05/11 04:44:36;;;;;;;2.30;2.20;;;16.10;99.90;;;;;;5065108;28;20198;-46
2022/05/11 04:47:08;;;;;;;4.37;3.27;;;16.30;99.90;;;;;;5069703;28;20224;-47
2022/05/11 04:49:37;;;;;;;5.70;2.33;;;16.60;99.90;;;;;;5070781;28;20650;-47
2022/05/11 04:52:08;;;;;;;2.90;2.70;;;17.00;99.90;;;;;;5070663;28;20189;-47
2022/05/11 04:54:37;;;;;;;3.07;2.77;;;17.30;99.90;;;;;;5067570;28;20251;-47
2022/05/11 04:57:05;;;;;;;3.20;2.83;;;17.80;99.90;;;;;;5067553;28;20221;-47
2022/05/11 04:59:33;;;;;;;4.10;3.40;;;18.30;99.90;;;;;;5069745;28;20201;-47
2022/05/11 05:02:00;;;;;;;3.50;3.30;;;18.60;99.90;;;;;;5066623;28;20296;-47
2022/05/11 05:04:29;;;;;;;4.07;3.80;;;18.90;99.90;;;;;;5067229;28;20661;-47
2022/05/11 05:06:56;;;;;;;5.07;3.83;;;19.10;99.90;;;;;;5075677;28;20216;-47
2022/05/11 05:09:23;;;;;;;4.03;3.00;;;19.30;99.90;;;;;;5071329;28;20242;-48
2022/05/11 05:11:50;;;;;;;5.70;3.47;;;19.60;99.90;;;;;;5069857;28;20621;-48
2022/05/11 05:14:18;;;;;;;3.43;3.17;;;19.90;99.90;;;;;;5052314;28;20198;-48
2022/05/11 05:16:47;;;;;;;4.78;3.83;;;20.20;99.90;;;;;;5065266;28;20467;-47
2022/05/11 05:19:17;;;;;;;3.67;3.10;;;20.20;99.90;;;;;;5072535;28;20249;-47
2022/05/11 05:21:49;;;;;;;5.13;3.73;;;20.10;99.90;;;;;;5072228;28;20197;-47
2022/05/11 05:24:16;;;;;;;3.13;3.00;;;20.10;99.90;;;;;;5067994;28;20197;-47
2022/05/11 05:26:46;;;;;;;4.33;3.27;;;20.10;99.90;;;;;;5070756;28;20193;-47
2022/05/11 05:31:58;;;;;;;2.80;2.50;;;20.50;99.90;;;;;;5068963;28;20200;-48
2022/05/11 05:34:25;;;;;;;3.30;3.13;;;21.20;99.90;;;;;;5071049;28;20258;-47
2022/05/11 05:36:54;;;;;;;2.60;2.40;;;21.70;99.90;;;;;;5069980;28;20205;-47
2022/05/11 05:39:21;;;;;;;2.97;2.87;;;22.20;99.90;;;;;;5065918;28;20876;-47
2022/05/11 05:41:49;;;;;;;3.53;3.23;;;22.10;99.90;;;;;;5068055;28;20205;-47
2022/05/11 05:44:16;;;;;;;2.60;2.40;;;22.10;99.90;;;;;;5065696;28;20193;-47
2022/05/11 05:46:44;;;;;;;2.97;2.83;;;22.30;99.90;;;;;;5064692;28;20266;-48
2022/05/11 05:51:38;;;;;;;6.07;2.80;;;22.00;99.90;;;;;;5071044;22;20238;-54
2022/05/11 05:54:07;;;;;;;3.03;2.33;;;22.00;99.90;;;;;;5041966;28;20200;-54
2022/05/11 05:56:34;;;;;;;3.83;3.53;;;22.20;99.90;;;;;;5039877;28;21031;-54
2022/05/11 05:59:05;;;;;;;3.37;3.07;;;22.20;99.90;;;;;;5037608;28;20254;-54
2022/05/11 06:01:32;;;;;;;2.60;2.40;;;22.00;99.90;;;;;;5042892;28;20210;-54
2022/05/11 06:04:00;;;;;;;4.40;4.00;;;22.10;99.90;;;;;;5047710;28;20221;-55
2022/05/11 06:06:27;;;;;;;4.03;2.30;;;22.10;99.90;;;;;;5050028;28;20197;-55
2022/05/11 06:08:54;;;;;;;4.40;2.27;;;22.30;99.90;;;;;;5044492;28;20664;-54
2022/05/11 06:11:22;;;;;;;2.93;2.73;;;22.60;99.90;;;;;;5054834;28;20216;-54
2022/05/11 06:13:49;;;;;;;2.87;2.67;;;22.80;99.90;;;;;;5050632;28;20251;-54
2022/05/11 06:16:17;;;;;;;2.57;2.47;;;22.70;99.90;;;;;;5058343;28;20230;-55
2022/05/11 06:18:46;;;;;;;2.30;2.00;;;22.80;99.90;;;;;;5055650;28;20277;-55
2022/05/11 06:21:15;;;;;;;3.10;2.57;;;23.10;99.90;;;;;;5052597;28;20214;-55
2022/05/11 06:23:42;;;;;;;3.60;2.40;;;23.50;99.90;;;;;;5052244;28;20267;-55
2022/05/11 06:26:09;;;;;;;2.50;2.40;;;23.60;99.90;;;;;;5053184;28;20198;-55
2022/05/11 06:28:40;;;;;;;2.00;2.00;;;23.40;99.90;;;;;;5053161;28;20291;-55
2022/05/11 06:31:07;;;;;;;3.20;2.17;;;23.90;99.90;;;;;;5051033;28;20210;-54
2022/05/11 06:33:34;;;;;;;3.73;2.90;;;24.20;99.90;;;;;;5054012;28;20286;-55
2022/05/11 06:36:01;;;;;;;2.30;2.20;;;24.10;99.90;;;;;;5054145;28;20202;-55
2022/05/11 06:38:28;;;;;;;2.60;2.50;;;24.70;99.90;;;;;;5049608;28;20263;-55
2022/05/11 06:40:55;;;;;;;2.50;2.40;;;24.70;99.90;;;;;;5039757;28;20265;-55
2022/05/11 06:43:22;;;;;;;3.90;2.63;;;25.10;99.90;;;;;;5033867;28;20199;-55
2022/05/11 06:45:51;;;;;;;2.90;2.77;;;25.30;99.90;;;;;;5037934;28;20205;-55
2022/05/11 06:48:18;;;;;;;2.80;2.60;;;25.00;99.90;;;;;;5046360;28;20194;-55
2022/05/11 06:50:44;;;;;;;2.47;1.87;;;25.30;99.90;;;;;;5032769;28;20302;-55
2022/05/11 06:53:14;;;;;;;2.90;1.83;;;25.50;99.90;;;;;;5036310;28;20256;-55
2022/05/11 07:01:16;;;;;;;1.97;1.87;;;25.90;99.90;;;;;;5026859;28;20549;-55
2022/05/11 07:03:43;;;;;;;2.47;2.20;;;25.60;99.90;;;;;;5053575;28;20248;-55
2022/05/11 07:06:11;;;;;;;4.60;2.80;;;26.00;99.90;;;;;;5052563;28;20201;-55
2022/05/11 07:08:41;;;;;;;1.83;1.73;;;26.80;99.70;;;;;;5053107;28;20235;-55
2022/05/11 07:13:55;;;;;;;1.83;1.58;;;27.40;97.00;;;;;;5053225;28;20200;-55
2022/05/11 07:16:25;;;;;;;1.95;1.90;;;28.00;97.50;;;;;;5053303;28;20579;-56
2022/05/11 07:18:52;;;;;;;2.58;1.98;;;28.50;96.40;;;;;;5052196;28;20632;-56
2022/05/11 07:21:19;;;;;;;1.85;1.73;;;28.70;96.10;;;;;;5047774;28;20221;-55
2022/05/11 07:23:46;;;;;;;1.70;1.58;;;28.30;95.30;;;;;;5052609;28;20206;-55
2022/05/11 07:26:13;;;;;;;2.15;2.05;;;28.40;94.30;;;;;;5052539;28;20202;-55
2022/05/11 07:28:40;;;;;;;2.30;1.77;;;28.50;94.80;;;;;;5052403;28;20611;-55
2022/05/11 07:31:07;;;;;;;7.32;1.70;;;28.90;95.10;;;;;;5051761;28;20249;-55
2022/05/11 07:33:36;;;;;;;1.75;1.70;;;29.20;94.30;;;;;;5050562;28;20627;-55
2022/05/11 07:36:03;;;;;;;2.25;1.85;;;27.90;93.30;;;;;;5052088;28;20205;-55
2022/05/11 07:38:30;;;;;;;1.88;1.77;;;28.00;95.10;;;;;;5042552;28;20214;-55
2022/05/11 07:40:57;;;;;;;2.28;1.90;;;28.70;94.30;;;;;;5043619;28;20218;-55
2022/05/11 07:43:24;;;;;;;1.77;1.70;;;29.30;92.60;;;;;;5035668;28;20239;-55
2022/05/11 07:45:51;;;;;;;1.77;1.67;;;28.90;92.70;;;;;;5049209;28;20212;-55
2022/05/11 07:48:21;;;;;;;2.05;1.95;;;28.40;93.20;;;;;;5042377;28;20255;-54
2022/05/11 07:50:49;;;;;;;1.98;1.88;;;28.30;94.00;;;;;;5034780;28;20309;-55
2022/05/11 07:53:16;;;;;;;2.25;1.83;;;28.50;92.70;;;;;;5032102;28;20285;-55
2022/05/11 07:55:44;;;;;;;2.13;1.42;;;28.90;91.90;;;;;;5037963;28;20668;-55
2022/05/11 08:00:55;;;;;;;1.55;1.55;;;29.30;90.80;;;;;;5033032;28;20348;-55
2022/05/11 08:03:23;;;;;;;2.08;1.60;;;29.10;92.30;;;;;;5033219;28;20198;-55
2022/05/11 08:05:52;;;;;;;3.70;1.35;;;29.50;92.90;;;;;;5050958;28;20714;-55
2022/05/11 08:08:19;;;;;;;22.83;4.95;;;30.20;92.40;;;;;;5050446;28;20339;-55
2022/05/11 08:10:47;;;;;;;2.25;2.03;;;30.50;90.60;;;;;;5050261;28;20434;-56
2022/05/11 08:13:16;;;;;;;4.60;2.53;;;30.40;91.70;;;;;;5048601;28;20198;-55
2022/05/11 08:15:47;;;;;;;1.95;1.90;;;30.30;90.20;;;;;;5036127;28;20226;-55
2022/05/11 08:18:15;;;;;;;44.42;6.40;;;30.20;88.80;;;;;;5031848;28;20202;-56
2022/05/11 08:20:43;;;;;;;108.93;12.80;;;30.50;91.60;;;;;;5049846;28;20252;-56
2022/05/11 08:23:13;;;;;;;20.08;4.82;;;30.10;90.90;;;;;;5050059;28;20196;-55
2022/05/11 08:25:42;;;;;;;2.10;2.00;;;29.80;91.00;;;;;;5050196;28;20193;-55
2022/05/11 08:28:13;;;;;;;22.50;8.00;;;30.10;89.10;;;;;;5043127;28;20256;-55
2022/05/11 08:33:26;;;;;;;22.33;7.97;;;30.80;88.10;;;;;;5043722;28;20576;-55
2022/05/11 08:35:56;;;;;;;8.40;4.05;;;31.50;90.70;;;;;;5035330;28;20202;-55
2022/05/11 08:38:26;;;;;;;2.45;2.25;;;31.40;92.20;;;;;;5031393;28;20286;-55
2022/05/11 08:40:59;;;;;;;6.13;2.00;;;31.70;90.00;;;;;;5037197;28;20218;-56
2022/05/11 08:43:31;;;;;;;6.63;2.33;;;32.00;85.70;;;;;;5037690;28;20206;-56
2022/05/11 08:46:05;;;;;;;1.77;1.67;;;32.10;88.40;;;;;;5038206;28;20206;-56
2022/05/11 08:48:43;;;;;;;1.83;1.83;;;32.00;87.40;;;;;;5031947;28;20817;-56
2022/05/11 08:51:21;;;;;;;3.35;1.83;;;31.50;85.50;;;;;;5048855;28;20236;-55
2022/05/11 08:53:53;;;;;;;1.85;1.85;;;32.00;84.50;;;;;;5040003;28;20202;-55
2022/05/11 08:56:24;;;;;;;2.13;2.00;;;31.70;86.40;;;;;;5044945;28;20260;-56
2022/05/11 08:58:54;;;;;;;1.98;1.80;;;31.70;85.80;;;;;;5051434;28;20675;-56
2022/05/11 09:01:28;;;;;;;1.98;1.88;;;31.50;87.60;;;;;;5038714;28;20587;-56
2022/05/11 09:03:55;;;;;;;4.15;2.10;;;31.70;86.40;;;;;;5050463;28;20210;-56
2022/05/11 09:06:26;;;;;;;3.70;2.15;;;32.20;83.10;;;;;;5039472;28;20222;-56
2022/05/11 09:08:56;;;;;;;2.35;2.25;;;32.10;84.10;;;;;;5034967;28;20202;-56
2022/05/11 09:11:29;;;;;;;2.10;2.00;;;32.50;85.30;;;;;;5041455;28;20750;-56
2022/05/11 09:13:58;;;;;;;3.58;1.83;;;31.90;86.00;;;;;;5042833;28;20195;-56
2022/05/11 09:16:27;;;;;;;2.85;2.65;;;31.50;89.40;;;;;;5042850;28;20244;-56
2022/05/11 09:18:56;;;;;;;2.67;2.30;;;31.70;85.50;;;;;;5050280;28;20202;-56
2022/05/11 09:21:30;;;;;;;2.13;1.92;;;31.70;86.00;;;;;;5050989;28;20217;-55
2022/05/11 09:24:09;;;;;;;2.30;2.00;;;31.40;82.10;;;;;;5051027;28;20289;-56
2022/05/11 09:26:40;;;;;;;2.25;2.08;;;31.50;84.40;;;;;;5050232;28;20201;-56
2022/05/11 09:29:22;;;;;;;1.90;1.80;;;31.40;88.70;;;;;;5050642;28;20193;-56
2022/05/11 09:31:51;;;;;;;8.23;2.65;;;32.00;87.30;;;;;;5051104;28;20668;-56
2022/05/11 09:34:27;;;;;;;2.92;2.72;;;32.20;84.50;;;;;;5051218;28;20212;-56
2022/05/11 09:36:58;;;;;;;2.88;2.22;;;32.50;81.90;;;;;;5050382;28;20309;-56
2022/05/11 09:39:28;;;;;;;2.17;2.05;;;32.70;83.70;;;;;;5050889;28;20209;-56
2022/05/11 09:42:01;;;;;;;2.47;2.10;;;33.10;87.90;;;;;;5033034;28;20230;-56
2022/05/11 09:44:42;;;;;;;2.13;2.03;;;33.60;82.50;;;;;;5031081;28;20237;-56
2022/05/11 09:47:27;;;;;;;1.63;1.63;;;33.80;76.70;;;;;;5031216;28;20289;-56
2022/05/11 09:49:54;;;;;;;2.42;1.98;;;33.90;79.10;;;;;;5044723;28;20233;-56
2022/05/11 09:52:34;;;;;;;2.08;1.98;;;33.20;80.00;;;;;;5049998;28;20553;-56
2022/05/11 09:55:16;;;;;;;2.65;2.38;;;33.40;76.60;;;;;;5050161;28;20198;-56
2022/05/11 09:57:58;;;;;;;1.95;1.85;;;33.30;80.20;;;;;;5040031;28;20198;-56
2022/05/11 10:00:33;;;;;;;1.67;1.55;;;33.10;80.10;;;;;;5043797;28;20362;-56
2022/05/11 10:03:02;;;;;;;1.70;1.70;;;33.60;80.80;;;;;;5044281;28;20267;-56
2022/05/11 10:05:33;;;;;;;3.78;1.67;;;33.90;75.00;;;;;;5049367;28;20194;-56
2022/05/11 10:08:07;;;;;;;2.50;2.30;;;34.20;76.80;;;;;;5048412;28;20202;-56
2022/05/11 10:10:39;;;;;;;3.70;2.33;;;34.40;74.00;;;;;;5044613;28;20225;-56
2022/05/11 10:13:15;;;;;;;3.08;1.98;;;33.90;76.20;;;;;;5048763;28;20255;-56
2022/05/11 10:24:45;;;;;;;2.05;2.00;;;32.80;76.10;;;;;;5048996;28;20208;-56
2022/05/11 10:27:23;;;;;;;3.10;2.90;;;32.80;78.80;;;;;;5048741;28;20501;-55
2022/05/11 10:30:14;;;;;;;3.13;2.97;;;32.70;78.90;;;;;;5036932;28;20269;-55
2022/05/11 10:33:09;;;;;;;3.40;3.15;;;32.80;77.80;;;;;;5046542;28;20194;-55
2022/05/11 10:35:47;;;;;;;4.57;3.35;;;33.10;78.10;;;;;;5044823;28;20197;-55
2022/05/11 10:38:49;;;;;;;3.10;2.83;;;32.20;78.90;;;;;;5051858;28;20198;-55
2022/05/11 10:41:27;;;;;;;2.50;2.45;;;32.40;82.00;;;;;;5046249;28;20222;-55
2022/05/11 10:44:05;;;;;;;3.05;2.80;;;32.00;78.30;;;;;;5053950;28;20232;-55
2022/05/11 10:46:37;;;;;;;2.85;2.60;;;32.20;78.30;;;;;;5052473;28;20259;-55
2022/05/11 10:49:20;;;;;;;3.10;3.00;;;32.00;80.00;;;;;;5053334;28;20202;-55
2022/05/11 10:51:59;;;;;;;3.78;3.47;;;31.10;79.70;;;;;;5053692;28;20200;-54
2022/05/11 10:54:34;;;;;;;3.00;2.83;;;31.00;78.70;;;;;;5053800;28;20687;-55
2022/05/11 10:57:08;;;;;;;4.03;3.17;;;30.80;80.90;;;;;;5053966;28;20205;-54
2022/05/11 11:00:00;;;;;;;3.88;3.58;;;30.70;78.50;;;;;;5053227;28;20643;-56
2022/05/11 11:02:59;;;;;;;3.58;3.10;;;30.50;83.50;;;;;;5048304;28;20235;-55
2022/05/11 11:05:32;;;;;;;2.83;2.65;;;30.00;82.20;;;;;;5033620;28;20202;-56
2022/05/11 11:08:11;;;;;;;3.50;3.33;;;30.00;83.20;;;;;;5035777;28;20936;-55
2022/05/11 11:10:45;;;;;;;5.28;3.55;;;29.80;79.10;;;;;;5053134;28;20796;-55
2022/05/11 11:13:47;;;;;;;4.05;2.75;;;29.60;82.70;;;;;;5053162;28;20248;-55
2022/05/11 11:16:15;;;;;;;3.15;3.10;;;29.60;81.50;;;;;;5053502;28;20766;-55
2022/05/11 11:18:46;;;;;;;3.05;2.83;;;29.50;84.40;;;;;;5052349;28;20197;-55
2022/05/11 11:21:14;;;;;;;3.17;2.65;;;28.90;87.50;;;;;;5045096;28;20249;-55
2022/05/11 11:23:43;;;;;;;3.60;3.30;;;28.90;86.40;;;;;;5053142;28;20737;-55
2022/05/11 11:26:13;;;;;;;3.55;3.45;;;28.60;83.90;;;;;;5053136;28;20198;-55
2022/05/11 11:29:19;;;;;;;3.13;2.80;;;28.40;86.10;;;;;;5051323;28;20630;-55
2022/05/11 11:32:19;;;;;;;3.05;2.88;;;28.30;87.20;;;;;;5025956;28;20340;-56
2022/05/11 11:34:49;;;;;;;3.33;3.13;;;28.20;87.50;;;;;;5049487;28;20694;-55
2022/05/11 11:37:45;;;;;;;3.30;3.13;;;28.30;85.20;;;;;;5052945;28;20220;-56
2022/05/11 11:40:29;;;;;;;2.75;2.65;;;28.30;84.90;;;;;;5044824;28;20643;-55
2022/05/11 11:42:57;;;;;;;3.60;3.08;;;28.30;87.50;;;;;;5043808;28;20221;-55
2022/05/11 11:46:06;;;;;;;3.45;3.25;;;28.40;85.20;;;;;;5039111;28;20198;-55
2022/05/11 11:48:38;;;;;;;3.10;3.00;;;28.30;85.50;;;;;;5021587;28;20261;-55
2022/05/11 11:51:12;;;;;;;3.38;3.17;;;28.20;89.10;;;;;;5031838;28;20238;-56
2022/05/11 11:56:48;;;;;;;3.75;3.63;;;28.10;86.10;;;;;;5104534;22;20231;-48
2022/05/11 11:59:42;;;;;;;3.78;3.58;;;28.20;85.50;;;;;;5072678;28;20193;-48
2022/05/11 12:02:28;;;;;;;3.25;3.15;;;28.10;86.20;;;;;;5077342;28;20221;-47
2022/05/11 12:05:11;;;;;;;3.33;3.13;;;28.00;90.30;;;;;;5073003;28;20225;-49
2022/05/11 12:16:08;;;;;;;3.20;3.10;;;27.90;89.70;;;;;;5072149;28;20243;-48
2022/05/11 12:18:39;;;;;;;4.82;3.78;;;27.90;90.30;;;;;;5072371;28;20197;-48
2022/05/11 12:21:10;;;;;;;3.35;3.10;;;27.90;89.30;;;;;;5080002;28;20666;-47
2022/05/11 12:23:40;;;;;;;3.83;3.47;;;27.80;90.50;;;;;;5081292;28;20257;-47
2022/05/11 12:26:10;;;;;;;3.67;3.47;;;27.70;90.10;;;;;;5091839;28;20216;-48
2022/05/11 12:28:40;;;;;;;2.92;2.92;;;27.60;88.00;;;;;;5090731;28;20192;-48
2022/05/11 12:31:08;;;;;;;3.55;3.35;;;27.60;90.00;;;;;;5091298;28;20246;-48
2022/05/11 12:33:39;;;;;;;3.33;3.08;;;27.60;89.90;;;;;;5073784;28;20199;-48
2022/05/11 12:36:08;;;;;;;3.47;3.38;;;27.50;86.10;;;;;;5072744;28;20236;-48
2022/05/11 12:38:37;;;;;;;5.45;3.88;;;27.50;87.40;;;;;;5087709;28;20638;-48
2022/05/11 12:41:13;;;;;;;4.50;3.75;;;27.60;87.30;;;;;;5092585;28;20208;-48
2022/05/11 12:43:42;;;;;;;4.30;3.95;;;27.50;88.00;;;;;;5091550;28;20709;-48
2022/05/11 12:46:12;;;;;;;3.92;3.67;;;27.50;88.50;;;;;;5083866;28;20231;-48
2022/05/11 12:48:43;;;;;;;3.80;3.53;;;27.50;90.70;;;;;;5092367;28;20208;-48
2022/05/11 12:51:15;;;;;;;3.22;2.90;;;27.30;87.50;;;;;;5091577;28;20608;-48
2022/05/11 12:53:49;;;;;;;3.45;3.22;;;27.40;88.30;;;;;;5083626;28;20279;-48
2022/05/11 12:56:19;;;;;;;4.07;3.90;;;27.40;89.00;;;;;;5084999;28;20195;-48
2022/05/11 12:58:49;;;;;;;3.08;2.88;;;27.50;87.80;;;;;;5092304;28;20200;-48
2022/05/11 13:01:18;;;;;;;3.70;3.28;;;27.60;88.80;;;;;;5091673;28;20201;-48
2022/05/11 13:03:46;;;;;;;3.60;3.50;;;27.60;88.80;;;;;;5092268;28;20220;-48
2022/05/11 13:06:24;;;;;;;4.07;3.88;;;27.70;87.50;;;;;;5092373;28;20253;-48
2022/05/11 13:08:54;;;;;;;3.28;3.08;;;27.70;86.90;;;;;;5085122;28;20612;-48
2022/05/11 13:11:24;;;;;;;3.70;3.40;;;27.70;88.50;;;;;;5084367;28;20204;-48
2022/05/11 13:13:55;;;;;;;3.95;3.65;;;27.70;88.80;;;;;;5092262;28;20193;-48
2022/05/11 13:16:26;;;;;;;3.70;3.28;;;27.60;88.50;;;;;;5092284;28;20197;-48
2022/05/11 13:19:05;;;;;;;4.10;3.72;;;27.60;87.80;;;;;;5092217;28;20225;-48
2022/05/11 13:21:36;;;;;;;3.35;3.25;;;27.60;90.50;;;;;;5091629;28;20200;-48
2022/05/11 13:24:05;;;;;;;4.15;3.70;;;27.60;88.80;;;;;;5091361;28;20204;-48
2022/05/11 13:26:37;;;;;;;4.43;3.67;;;27.60;90.00;;;;;;5089279;28;20193;-48
2022/05/11 13:29:16;;;;;;;3.08;2.88;;;27.50;89.90;;;;;;5091862;28;20674;-48
2022/05/11 13:31:46;;;;;;;3.10;3.00;;;27.50;89.90;;;;;;5090793;28;20204;-48
2022/05/11 13:34:32;;;;;;;3.30;3.05;;;27.60;87.70;;;;;;5071843;28;20244;-48
2022/05/11 13:37:02;;;;;;;3.45;3.35;;;27.60;88.70;;;;;;5083169;28;20208;-48
2022/05/11 13:39:33;;;;;;;3.20;2.97;;;27.70;87.50;;;;;;5091944;28;20583;-48
2022/05/11 13:42:03;;;;;;;3.20;2.95;;;27.70;89.20;;;;;;5091745;28;20211;-48
2022/05/11 13:44:36;;;;;;;2.95;2.72;;;27.80;88.80;;;;;;5091535;28;20212;-48
2022/05/11 13:50:32;;;;;;;3.10;2.90;;;27.70;86.20;;;;;;5091231;28;20253;-48
2022/05/11 13:53:05;;;;;;;3.20;2.90;;;27.70;85.50;;;;;;5091407;28;20200;-48